AirNav   Bose ProFlight Aviation Headset
 
 546 users online  

UT01 Musselman Airstrip
Paradise, Utah, USA

GOING TO PARADISE?


FAA INFORMATION EFFECTIVE 16 AUGUST 2018

Location

FAA Identifier: UT01
Lat/Long: 41-31-05.7000N / 111-48-08.7000W
41-31.095000N / 111-48.145000W
41.5182500 / -111.8024167
(estimated)
Elevation: 5505 ft. / 1678 m (estimated)
From city: 3 miles SE of PARADISE, UT
Time zone: UTC -6 (UTC -7 during Standard Time)
Zip code: 84328

Airport Operations

Airport use: Private use. Permission required prior to landing
Activation date: 01/2017
Control tower: no
ARTCC: SALT LAKE CITY CENTER
FSS: CEDAR CITY FLIGHT SERVICE STATION
Attendance: 
Wind indicator: yes
Segmented circle: no

Airport Communications

WX AWOS-3 at BMC (12 nm W): 135.075 (435-723-3852)
WX ASOS at LGU (17 nm N): 135.275 (435-752-6941)

Nearby radio navigation aids

VOR radial/distance  VOR name  Freq  Var
LHOr137/18.9BRIGHAM CITY VOR/DME112.9014E
OGDr023/22.1OGDEN VORTAC115.7014E
EVWr280/37.1EVANSTON VOR/DME109.6013E

Airport Services

Runway Information

Runway 17/35

Dimensions: 980 x 40 ft. / 299 x 12 m
Surface: dirt
RUNWAY 17  RUNWAY 35
Traffic pattern: leftleft

Airport Ownership and Management from official FAA records

Ownership: Privately-owned
Owner: ROGER PULSIPHER
11800 S. 800 E.
PARADISE, UT 84328
Phone 435-770-6900
Manager: GREG MUSSELMAN
11344 S. 1300 E.
PARADISE, UT 84328
Phone 801-388-7753

Additional Remarks

PRIOR PERMISSION REQUIRED TO USE

Instrument Procedures

There are no published instrument procedures at UT01.

Some nearby airports with instrument procedures:

KBMC - Brigham City Regional Airport (12 nm W)
KLGU - Logan-Cache Airport (17 nm N)
KOGD - Ogden-Hinckley Airport (22 nm SW)
KHIF - Hill Air Force Base (25 nm S)
KEVW - Evanston-Uinta County Airport - Burns Field (38 nm SE)
 
Loc | Ops | Rwys | IFR | FBO | Links
Com | Nav | Svcs | Stats | Notes


 
Aerial photo
No photo
 
Airport distance calculator
Flying to Musselman Airstrip? Find the distance to fly.

From to UT01

Sunrise and sunset
Times for 18-Aug-2018
 Local
(UTC-6)
 Zulu
(UTC)
Morning civil twilight06:1112:11
Sunrise06:4012:40
Sunset20:2202:22
Evening civil twilight20:5102:51

Current date and time
Zulu (UTC)  18-Aug-2018 11:05:49
Local (UTC-6)  18-Aug-2018 05:05:49
 
METAR
KBMC 
12nm W 
181055Z AUTO 00000KT 10SM CLR 19/09 A3021 RMK AO1 T01890093
KLGU 
16nm N 
181051Z AUTO 00000KT 10SM CLR 16/09 A3022 RMK AO2 SLP176 T01560089
KOGD 
21nm SW 
181053Z AUTO 21003KT 10SM CLR 18/09 A3021 RMK AO2 SLP167 T01830089
TAF
KLGU 
16nm N 
180859Z 1809/1906 18008KT P6SM SKC FM181900 31009KT P6SM SKC FM190200 VRB05KT P6SM SKC
NOTAMs
Click for the latest NOTAMs
NOTAMs are issued by the DoD/FAA and will open in a separate window not controlled by AirNav.

 

 
 

Would you like to see your business listed on this page?

 If your business provides an interesting product or service to pilots, flight crews, aircraft, or users of the Musselman Airstrip, you should consider listing it here.  To start the listing process, click on the button below
 
Add a business
 

Other Pages about Musselman Airstrip

Update a link
 
Copyright © AirNav, LLC. All rights reserved. Privacy Policy  Contact